EZY1017 LFBO-GMMX
Flight info
| Callsign | EZY1017 |
|---|---|
| Flight time | 2h 18m |
| Altitude | 37000 |
| Route | GAUDE DCT TIVLI DCT ELSAP DCT ZAR DCT EXEMU DCT PISUS DCT EDIMU DCT ADUXO DCT NUSGO DCT OBIBO DCT NASOS L27 BLN DCT MGA DCT PIMOS DCT GALTO UN869 SLK UZ801 VALBA UG850 OBOGA |
| Aircraft | A320/M-SDE3FGHIRWY/LB1 |
Departure
| Time | 2026-05-07 10:27 |
|---|---|
| Airport | Toulouse-Blagnac Airport (LFBO) |
Arrival
| Time | 2026-05-07 12:45 |
|---|---|
| Airport | Marrakesh Menara Airport (GMMX) |
| Time | Latitude | Longitude | Altitude | Speed | Heading |
|---|---|---|---|---|---|
| 2026-05-07 10:16 | 43.62986 | 1.37324 | 495 ft | 0 kts | 45° |
| 2026-05-07 10:21 | 43.62970 | 1.37302 | 486 ft | 4 kts | 42° |
| 2026-05-07 10:21 | 43.62950 | 1.37277 | 490 ft | 4 kts | 43° |
| 2026-05-07 10:22 | 43.62933 | 1.37250 | 484 ft | 4 kts | 72° |
| 2026-05-07 10:22 | 43.62934 | 1.37219 | 489 ft | 4 kts | 132° |
| 2026-05-07 10:22 | 43.62939 | 1.37212 | 491 ft | 0 kts | 142° |
| 2026-05-07 10:23 | 43.62903 | 1.37250 | 494 ft | 14 kts | 142° |
| 2026-05-07 10:24 | 43.62818 | 1.37339 | 489 ft | 15 kts | 143° |
| 2026-05-07 10:24 | 43.62733 | 1.37427 | 493 ft | 15 kts | 143° |
| 2026-05-07 10:24 | 43.62640 | 1.37473 | 485 ft | 15 kts | 205° |
| 2026-05-07 10:24 | 43.62577 | 1.37367 | 488 ft | 14 kts | 233° |
| 2026-05-07 10:25 | 43.62495 | 1.37366 | 489 ft | 14 kts | 145° |
| 2026-05-07 10:25 | 43.62402 | 1.37462 | 491 ft | 18 kts | 143° |
| 2026-05-07 10:25 | 43.62300 | 1.37567 | 486 ft | 19 kts | 142° |
| 2026-05-07 10:25 | 43.62207 | 1.37662 | 494 ft | 14 kts | 156° |
| 2026-05-07 10:26 | 43.62134 | 1.37618 | 494 ft | 11 kts | 229° |
| 2026-05-07 10:26 | 43.62082 | 1.37526 | 487 ft | 12 kts | 239° |
| 2026-05-07 10:26 | 43.62118 | 1.37448 | 484 ft | 12 kts | 323° |
| 2026-05-07 10:26 | 43.62335 | 1.37222 | 485 ft | 81 kts | 323° |
| 2026-05-07 10:27 | 43.62999 | 1.36532 | 491 ft | 151 kts | 323° |
| 2026-05-07 10:27 | 43.63885 | 1.35597 | 958 ft | 158 kts | 322° |
| 2026-05-07 10:27 | 43.64746 | 1.34660 | 1669 ft | 158 kts | 322° |
| 2026-05-07 10:27 | 43.65642 | 1.33676 | 2084 ft | 174 kts | 321° |
| 2026-05-07 10:28 | 43.66648 | 1.32568 | 2369 ft | 196 kts | 321° |
| 2026-05-07 10:28 | 43.67778 | 1.31318 | 2614 ft | 221 kts | 320° |
| 2026-05-07 10:28 | 43.68853 | 1.29651 | 2954 ft | 245 kts | 306° |
| 2026-05-07 10:28 | 43.69918 | 1.27690 | 3536 ft | 261 kts | 308° |
| 2026-05-07 10:29 | 43.71008 | 1.25655 | 4388 ft | 266 kts | 300° |
| 2026-05-07 10:29 | 43.71609 | 1.23240 | 5208 ft | 269 kts | 276° |
| 2026-05-07 10:29 | 43.71460 | 1.20655 | 6043 ft | 274 kts | 252° |
| 2026-05-07 10:30 | 43.69061 | 1.16676 | 7670 ft | 281 kts | 206° |
| 2026-05-07 10:30 | 43.67163 | 1.15989 | 8437 ft | 287 kts | 181° |
| 2026-05-07 10:30 | 43.65170 | 1.16286 | 9216 ft | 291 kts | 171° |
| 2026-05-07 10:30 | 43.63167 | 1.16738 | 10035 ft | 293 kts | 171° |
| 2026-05-07 10:31 | 43.61102 | 1.16984 | 10512 ft | 308 kts | 184° |
| 2026-05-07 10:31 | 43.58914 | 1.16735 | 10745 ft | 330 kts | 185° |
| 2026-05-07 10:31 | 43.56583 | 1.16438 | 11264 ft | 340 kts | 189° |
| 2026-05-07 10:31 | 43.54309 | 1.15499 | 11927 ft | 344 kts | 203° |
| 2026-05-07 10:32 | 43.52117 | 1.14138 | 12634 ft | 347 kts | 206° |
| 2026-05-07 10:32 | 43.49962 | 1.12619 | 13323 ft | 350 kts | 211° |
| 2026-05-07 10:32 | 43.47904 | 1.10815 | 13983 ft | 352 kts | 214° |
| 2026-05-07 10:32 | 43.45865 | 1.08929 | 14657 ft | 354 kts | 215° |
| 2026-05-07 10:33 | 43.43838 | 1.06968 | 15278 ft | 358 kts | 216° |
| 2026-05-07 10:33 | 43.41812 | 1.04950 | 15902 ft | 361 kts | 216° |
| 2026-05-07 10:33 | 43.39778 | 1.02898 | 16507 ft | 364 kts | 217° |
| 2026-05-07 10:33 | 43.37732 | 1.00827 | 17107 ft | 367 kts | 216° |
| 2026-05-07 10:34 | 43.35669 | 0.98743 | 17678 ft | 370 kts | 216° |
| 2026-05-07 10:34 | 43.33585 | 0.96646 | 18252 ft | 372 kts | 216° |
| 2026-05-07 10:34 | 43.31486 | 0.94543 | 18805 ft | 375 kts | 216° |
| 2026-05-07 10:34 | 43.29368 | 0.92436 | 19321 ft | 377 kts | 216° |
| 2026-05-07 10:35 | 43.27227 | 0.90325 | 19852 ft | 380 kts | 216° |
| 2026-05-07 10:35 | 43.25067 | 0.88204 | 20355 ft | 383 kts | 216° |
| 2026-05-07 10:35 | 43.22922 | 0.86099 | 20836 ft | 385 kts | 215° |
| 2026-05-07 10:35 | 43.20704 | 0.83923 | 21318 ft | 388 kts | 216° |
| 2026-05-07 10:36 | 43.18533 | 0.81790 | 21774 ft | 391 kts | 216° |
| 2026-05-07 10:36 | 43.16311 | 0.79610 | 22219 ft | 394 kts | 216° |
| 2026-05-07 10:36 | 43.14074 | 0.77418 | 22681 ft | 396 kts | 216° |
| 2026-05-07 10:36 | 43.11822 | 0.75213 | 23108 ft | 399 kts | 215° |
| 2026-05-07 10:37 | 43.09557 | 0.73000 | 23517 ft | 401 kts | 215° |
| 2026-05-07 10:37 | 43.07277 | 0.70778 | 23942 ft | 404 kts | 215° |
| 2026-05-07 10:37 | 43.04985 | 0.68541 | 24358 ft | 406 kts | 215° |
| 2026-05-07 10:37 | 43.02795 | 0.66097 | 24767 ft | 408 kts | 225° |
| 2026-05-07 10:38 | 43.00960 | 0.63127 | 25145 ft | 411 kts | 235° |
| 2026-05-07 10:38 | 42.99557 | 0.59721 | 25520 ft | 413 kts | 246° |
| 2026-05-07 10:38 | 42.98637 | 0.55999 | 25890 ft | 416 kts | 255° |
| 2026-05-07 10:38 | 42.98191 | 0.53454 | 26130 ft | 417 kts | 256° |
| 2026-05-07 10:39 | 42.97513 | 0.49600 | 26498 ft | 419 kts | 255° |
| 2026-05-07 10:39 | 42.96827 | 0.45719 | 26859 ft | 420 kts | 255° |
| 2026-05-07 10:39 | 42.96135 | 0.41840 | 27203 ft | 422 kts | 255° |
| 2026-05-07 10:39 | 42.95435 | 0.37942 | 27538 ft | 424 kts | 255° |
| 2026-05-07 10:40 | 42.94731 | 0.34030 | 27867 ft | 425 kts | 255° |
| 2026-05-07 10:40 | 42.94023 | 0.30100 | 28201 ft | 427 kts | 255° |
| 2026-05-07 10:40 | 42.93312 | 0.26156 | 28525 ft | 429 kts | 255° |
| 2026-05-07 10:40 | 42.92597 | 0.22197 | 28829 ft | 430 kts | 255° |
| 2026-05-07 10:41 | 42.91878 | 0.18227 | 29128 ft | 433 kts | 255° |
| 2026-05-07 10:41 | 42.91154 | 0.14235 | 29432 ft | 434 kts | 255° |
| 2026-05-07 10:41 | 42.90430 | 0.10239 | 29725 ft | 435 kts | 255° |
| 2026-05-07 10:41 | 42.89704 | 0.06227 | 30010 ft | 436 kts | 255° |
| 2026-05-07 10:42 | 42.88970 | 0.02196 | 30274 ft | 438 kts | 255° |
| 2026-05-07 10:42 | 42.88233 | -0.01838 | 30542 ft | 439 kts | 255° |
| 2026-05-07 10:42 | 42.87488 | -0.05891 | 30757 ft | 442 kts | 255° |
| 2026-05-07 10:42 | 42.86748 | -0.09915 | 30964 ft | 444 kts | 255° |
| 2026-05-07 10:43 | 42.85998 | -0.13995 | 31287 ft | 444 kts | 255° |
| 2026-05-07 10:43 | 42.85252 | -0.18070 | 31639 ft | 442 kts | 255° |
| 2026-05-07 10:43 | 42.84509 | -0.22131 | 31953 ft | 442 kts | 255° |
| 2026-05-07 10:43 | 42.83762 | -0.26187 | 32274 ft | 441 kts | 254° |
| 2026-05-07 10:44 | 42.83009 | -0.30228 | 32599 ft | 440 kts | 254° |
| 2026-05-07 10:44 | 42.82228 | -0.34256 | 32922 ft | 438 kts | 250° |
| 2026-05-07 10:44 | 42.81039 | -0.38057 | 33227 ft | 436 kts | 239° |
| 2026-05-07 10:44 | 42.79343 | -0.41451 | 33543 ft | 434 kts | 229° |
| 2026-05-07 10:45 | 42.77203 | -0.44329 | 33832 ft | 432 kts | 218° |
| 2026-05-07 10:45 | 42.74704 | -0.46570 | 34125 ft | 431 kts | 207° |
| 2026-05-07 10:45 | 42.71948 | -0.48183 | 34399 ft | 431 kts | 201° |
| 2026-05-07 10:45 | 42.69152 | -0.49655 | 34652 ft | 431 kts | 201° |
| 2026-05-07 10:46 | 42.66359 | -0.51122 | 34895 ft | 431 kts | 201° |
| 2026-05-07 10:46 | 42.63554 | -0.52592 | 35130 ft | 432 kts | 201° |
| 2026-05-07 10:46 | 42.60750 | -0.54060 | 35365 ft | 432 kts | 201° |
| 2026-05-07 10:46 | 42.57946 | -0.55530 | 35587 ft | 432 kts | 201° |
| 2026-05-07 10:47 | 42.55180 | -0.56981 | 35801 ft | 432 kts | 201° |
| 2026-05-07 10:47 | 42.52375 | -0.58450 | 36008 ft | 433 kts | 201° |
| 2026-05-07 10:47 | 42.49565 | -0.59921 | 36217 ft | 433 kts | 201° |
| 2026-05-07 10:47 | 42.46758 | -0.61389 | 36416 ft | 433 kts | 201° |
| 2026-05-07 10:48 | 42.43946 | -0.62858 | 36586 ft | 433 kts | 201° |
| 2026-05-07 10:48 | 42.41139 | -0.64320 | 36843 ft | 431 kts | 201° |
| 2026-05-07 10:48 | 42.38347 | -0.65771 | 36991 ft | 429 kts | 201° |
| 2026-05-07 10:48 | 42.35569 | -0.67216 | 37018 ft | 427 kts | 202° |
| 2026-05-07 10:49 | 42.30024 | -0.70098 | 37016 ft | 426 kts | 201° |
| 2026-05-07 10:49 | 42.24489 | -0.72961 | 37017 ft | 426 kts | 201° |
| 2026-05-07 10:50 | 42.18965 | -0.75830 | 37017 ft | 426 kts | 201° |
| 2026-05-07 10:50 | 42.13436 | -0.78694 | 37016 ft | 426 kts | 201° |
| 2026-05-07 10:51 | 42.07896 | -0.81545 | 37020 ft | 426 kts | 201° |
| 2026-05-07 10:51 | 42.02356 | -0.84391 | 37022 ft | 426 kts | 201° |
| 2026-05-07 10:52 | 41.96813 | -0.87232 | 37020 ft | 426 kts | 201° |
| 2026-05-07 10:52 | 41.91278 | -0.90080 | 37018 ft | 426 kts | 201° |
| 2026-05-07 10:53 | 41.85740 | -0.92921 | 37019 ft | 426 kts | 201° |
| 2026-05-07 10:53 | 41.80234 | -0.95727 | 37016 ft | 426 kts | 201° |
| 2026-05-07 10:54 | 41.74692 | -0.98541 | 37016 ft | 426 kts | 201° |
| 2026-05-07 10:54 | 41.69148 | -1.01359 | 37011 ft | 426 kts | 201° |
| 2026-05-07 10:55 | 41.63860 | -1.04856 | 37008 ft | 424 kts | 215° |
| 2026-05-07 10:55 | 41.59005 | -1.09352 | 37006 ft | 425 kts | 214° |
| 2026-05-07 10:56 | 41.54128 | -1.13817 | 37006 ft | 425 kts | 214° |
| 2026-05-07 10:56 | 41.49246 | -1.18276 | 37008 ft | 425 kts | 214° |
| 2026-05-07 10:57 | 41.44377 | -1.22725 | 37012 ft | 424 kts | 214° |
| 2026-05-07 10:57 | 41.39510 | -1.27180 | 37012 ft | 424 kts | 214° |
| 2026-05-07 10:58 | 41.34672 | -1.31591 | 37011 ft | 424 kts | 214° |
| 2026-05-07 10:58 | 41.29798 | -1.36023 | 37011 ft | 425 kts | 214° |
| 2026-05-07 10:59 | 41.24921 | -1.40441 | 37012 ft | 424 kts | 214° |
| 2026-05-07 10:59 | 41.20049 | -1.44866 | 37013 ft | 424 kts | 214° |
| 2026-05-07 11:00 | 41.15170 | -1.49290 | 37013 ft | 424 kts | 214° |
| 2026-05-07 11:00 | 41.10295 | -1.53701 | 37017 ft | 424 kts | 214° |
| 2026-05-07 11:01 | 41.05414 | -1.58101 | 37021 ft | 424 kts | 214° |
| 2026-05-07 11:01 | 41.00528 | -1.62499 | 37028 ft | 424 kts | 214° |
| 2026-05-07 11:02 | 40.95642 | -1.66887 | 37029 ft | 424 kts | 214° |
| 2026-05-07 11:02 | 40.90759 | -1.71266 | 37031 ft | 424 kts | 214° |
| 2026-05-07 11:03 | 40.85868 | -1.75651 | 37035 ft | 424 kts | 214° |
| 2026-05-07 11:03 | 40.80981 | -1.80022 | 37031 ft | 424 kts | 214° |
| 2026-05-07 11:04 | 40.76094 | -1.84377 | 37024 ft | 423 kts | 214° |
| 2026-05-07 11:04 | 40.71247 | -1.88689 | 37022 ft | 423 kts | 214° |
| 2026-05-07 11:05 | 40.66365 | -1.93033 | 37016 ft | 423 kts | 214° |
| 2026-05-07 11:05 | 40.61488 | -1.97367 | 37010 ft | 423 kts | 214° |
| 2026-05-07 11:06 | 40.56601 | -2.01687 | 37008 ft | 423 kts | 214° |
| 2026-05-07 11:06 | 40.51713 | -2.05995 | 37007 ft | 423 kts | 214° |
| 2026-05-07 11:07 | 40.46817 | -2.10311 | 37002 ft | 423 kts | 214° |
| 2026-05-07 11:07 | 40.41921 | -2.14625 | 37002 ft | 423 kts | 214° |
| 2026-05-07 11:08 | 40.37065 | -2.18902 | 36999 ft | 424 kts | 214° |
| 2026-05-07 11:08 | 40.32163 | -2.23200 | 36995 ft | 424 kts | 214° |
| 2026-05-07 11:09 | 40.27263 | -2.27486 | 36994 ft | 423 kts | 214° |
| 2026-05-07 11:09 | 40.22363 | -2.31770 | 36992 ft | 424 kts | 214° |
| 2026-05-07 11:10 | 40.17465 | -2.36059 | 36988 ft | 423 kts | 214° |
| 2026-05-07 11:10 | 40.12565 | -2.40335 | 36988 ft | 423 kts | 214° |
| 2026-05-07 11:11 | 40.07659 | -2.44588 | 36987 ft | 423 kts | 214° |
| 2026-05-07 11:11 | 40.02751 | -2.48841 | 36984 ft | 424 kts | 214° |
| 2026-05-07 11:12 | 39.97847 | -2.53090 | 36984 ft | 423 kts | 214° |
| 2026-05-07 11:12 | 39.92940 | -2.57336 | 36983 ft | 423 kts | 214° |
| 2026-05-07 11:13 | 39.88039 | -2.61578 | 36982 ft | 423 kts | 214° |
| 2026-05-07 11:13 | 39.83140 | -2.65808 | 36983 ft | 422 kts | 214° |
| 2026-05-07 11:14 | 39.78267 | -2.70003 | 36979 ft | 423 kts | 214° |
| 2026-05-07 11:14 | 39.73357 | -2.74225 | 36980 ft | 423 kts | 214° |
| 2026-05-07 11:15 | 39.68439 | -2.78438 | 36981 ft | 424 kts | 213° |
| 2026-05-07 11:15 | 39.63515 | -2.82650 | 36984 ft | 424 kts | 214° |
| 2026-05-07 11:16 | 39.58589 | -2.86861 | 36988 ft | 424 kts | 213° |
| 2026-05-07 11:16 | 39.53657 | -2.91074 | 36990 ft | 425 kts | 214° |
| 2026-05-07 11:17 | 39.48730 | -2.95282 | 36986 ft | 424 kts | 213° |
| 2026-05-07 11:17 | 39.43804 | -2.99472 | 36986 ft | 423 kts | 213° |
| 2026-05-07 11:18 | 39.38769 | -3.03315 | 36984 ft | 424 kts | 203° |
| 2026-05-07 11:18 | 39.33247 | -3.06027 | 36984 ft | 424 kts | 201° |
| 2026-05-07 11:19 | 39.27723 | -3.08715 | 36980 ft | 424 kts | 201° |
| 2026-05-07 11:19 | 39.22204 | -3.11391 | 36977 ft | 424 kts | 201° |
| 2026-05-07 11:20 | 39.16686 | -3.14066 | 36973 ft | 424 kts | 201° |
| 2026-05-07 11:20 | 39.11160 | -3.16738 | 36972 ft | 424 kts | 201° |
| 2026-05-07 11:21 | 39.05635 | -3.19413 | 36974 ft | 424 kts | 201° |
| 2026-05-07 11:21 | 39.00108 | -3.22083 | 36977 ft | 425 kts | 201° |
| 2026-05-07 11:22 | 38.94571 | -3.24754 | 36981 ft | 424 kts | 201° |
| 2026-05-07 11:22 | 38.89037 | -3.27415 | 36982 ft | 425 kts | 201° |
| 2026-05-07 11:23 | 38.83493 | -3.30069 | 36987 ft | 426 kts | 201° |
| 2026-05-07 11:23 | 38.77946 | -3.32724 | 36991 ft | 425 kts | 201° |
| 2026-05-07 11:24 | 38.72399 | -3.35381 | 36993 ft | 426 kts | 201° |
| 2026-05-07 11:24 | 38.66852 | -3.38032 | 36995 ft | 425 kts | 201° |
| 2026-05-07 11:25 | 38.61307 | -3.40676 | 36991 ft | 425 kts | 201° |
| 2026-05-07 11:25 | 38.55798 | -3.43295 | 36987 ft | 425 kts | 201° |
| 2026-05-07 11:26 | 38.50251 | -3.45928 | 36984 ft | 425 kts | 201° |
| 2026-05-07 11:26 | 38.44708 | -3.48565 | 36982 ft | 425 kts | 202° |
| 2026-05-07 11:27 | 38.39164 | -3.51186 | 36983 ft | 425 kts | 201° |
| 2026-05-07 11:27 | 38.33615 | -3.53803 | 36984 ft | 425 kts | 202° |
| 2026-05-07 11:28 | 38.28066 | -3.56437 | 36982 ft | 425 kts | 202° |
| 2026-05-07 11:28 | 38.22520 | -3.59051 | 36980 ft | 425 kts | 202° |
| 2026-05-07 11:29 | 38.17908 | -3.61215 | 36976 ft | 425 kts | 201° |
| 2026-05-07 11:29 | 38.11508 | -3.64398 | 36976 ft | 424 kts | 205° |
| 2026-05-07 11:30 | 38.06135 | -3.67514 | 36978 ft | 425 kts | 206° |
| 2026-05-07 11:30 | 38.01645 | -3.70171 | 36981 ft | 425 kts | 206° |
| 2026-05-07 11:31 | 37.96290 | -3.73236 | 36983 ft | 425 kts | 205° |
| 2026-05-07 11:31 | 37.90882 | -3.76263 | 36984 ft | 425 kts | 205° |
| 2026-05-07 11:32 | 37.82764 | -3.80816 | 36977 ft | 425 kts | 205° |
| 2026-05-07 11:33 | 37.77355 | -3.83855 | 36976 ft | 425 kts | 205° |
| 2026-05-07 11:33 | 37.71944 | -3.86891 | 36972 ft | 425 kts | 205° |
| 2026-05-07 11:34 | 37.66539 | -3.89924 | 36970 ft | 425 kts | 205° |
| 2026-05-07 11:34 | 37.61128 | -3.92953 | 36973 ft | 425 kts | 205° |
| 2026-05-07 11:35 | 37.55749 | -3.95956 | 36971 ft | 425 kts | 205° |
| 2026-05-07 11:35 | 37.50340 | -3.98961 | 36975 ft | 425 kts | 205° |
| 2026-05-07 11:36 | 37.44937 | -4.01970 | 36973 ft | 425 kts | 206° |
| 2026-05-07 11:36 | 37.39523 | -4.04981 | 36967 ft | 426 kts | 206° |
| 2026-05-07 11:37 | 37.34102 | -4.07980 | 36964 ft | 426 kts | 206° |
| 2026-05-07 11:37 | 37.28674 | -4.10986 | 36963 ft | 426 kts | 206° |
| 2026-05-07 11:38 | 37.23240 | -4.13999 | 36964 ft | 427 kts | 206° |
| 2026-05-07 11:38 | 37.17804 | -4.17010 | 36966 ft | 427 kts | 206° |
| 2026-05-07 11:39 | 37.12362 | -4.20006 | 36972 ft | 427 kts | 206° |
| 2026-05-07 11:39 | 37.06913 | -4.22999 | 36971 ft | 428 kts | 206° |
| 2026-05-07 11:40 | 37.01498 | -4.25966 | 36965 ft | 428 kts | 206° |
| 2026-05-07 11:40 | 36.96044 | -4.28961 | 36969 ft | 428 kts | 206° |
| 2026-05-07 11:41 | 36.90584 | -4.31952 | 36967 ft | 428 kts | 206° |
| 2026-05-07 11:41 | 36.85121 | -4.34932 | 36972 ft | 428 kts | 206° |
| 2026-05-07 11:42 | 36.79807 | -4.38229 | 36975 ft | 425 kts | 215° |
| 2026-05-07 11:42 | 36.74830 | -4.42222 | 36975 ft | 425 kts | 215° |
| 2026-05-07 11:43 | 36.69841 | -4.46187 | 36972 ft | 425 kts | 215° |
| 2026-05-07 11:43 | 36.64841 | -4.50152 | 36973 ft | 426 kts | 215° |
| 2026-05-07 11:44 | 36.59849 | -4.54111 | 36978 ft | 426 kts | 215° |
| 2026-05-07 11:44 | 36.54881 | -4.58041 | 36977 ft | 426 kts | 215° |
| 2026-05-07 11:45 | 36.49880 | -4.61984 | 36981 ft | 426 kts | 215° |
| 2026-05-07 11:45 | 36.44878 | -4.65926 | 36982 ft | 426 kts | 215° |
| 2026-05-07 11:46 | 36.39877 | -4.69864 | 36984 ft | 426 kts | 215° |
| 2026-05-07 11:46 | 36.34868 | -4.73802 | 36979 ft | 426 kts | 215° |
| 2026-05-07 11:47 | 36.29861 | -4.77727 | 36980 ft | 426 kts | 215° |
| 2026-05-07 11:47 | 36.24854 | -4.81649 | 36977 ft | 426 kts | 215° |
| 2026-05-07 11:48 | 36.19845 | -4.85572 | 36977 ft | 426 kts | 215° |
| 2026-05-07 11:48 | 36.14830 | -4.89500 | 36978 ft | 426 kts | 215° |
| 2026-05-07 11:49 | 36.09835 | -4.93442 | 36976 ft | 426 kts | 216° |
| 2026-05-07 11:49 | 36.04844 | -4.97405 | 36976 ft | 426 kts | 216° |
| 2026-05-07 11:50 | 35.99883 | -5.01328 | 36973 ft | 426 kts | 216° |
| 2026-05-07 11:50 | 35.94880 | -5.05275 | 36976 ft | 427 kts | 216° |
| 2026-05-07 11:51 | 35.89879 | -5.09211 | 36984 ft | 426 kts | 216° |
| 2026-05-07 11:51 | 35.84882 | -5.13140 | 36985 ft | 425 kts | 216° |
| 2026-05-07 11:52 | 35.79980 | -5.17216 | 36977 ft | 424 kts | 219° |
| 2026-05-07 11:52 | 35.75297 | -5.21615 | 36978 ft | 424 kts | 221° |
| 2026-05-07 11:53 | 35.70636 | -5.26063 | 36974 ft | 424 kts | 220° |
| 2026-05-07 11:53 | 35.65921 | -5.30440 | 36968 ft | 424 kts | 220° |
| 2026-05-07 11:54 | 35.61181 | -5.34761 | 36963 ft | 424 kts | 220° |
| 2026-05-07 11:54 | 35.56443 | -5.39082 | 36959 ft | 424 kts | 220° |
| 2026-05-07 11:55 | 35.51745 | -5.43391 | 36958 ft | 424 kts | 220° |
| 2026-05-07 11:55 | 35.47015 | -5.47719 | 36952 ft | 424 kts | 220° |
| 2026-05-07 11:56 | 35.42272 | -5.52046 | 36963 ft | 425 kts | 220° |
| 2026-05-07 11:56 | 35.37529 | -5.56373 | 36960 ft | 424 kts | 220° |
| 2026-05-07 11:57 | 35.32792 | -5.60694 | 36961 ft | 424 kts | 220° |
| 2026-05-07 11:57 | 35.28061 | -5.64981 | 36953 ft | 423 kts | 220° |
| 2026-05-07 11:58 | 35.23322 | -5.69280 | 36955 ft | 424 kts | 220° |
| 2026-05-07 11:58 | 35.18583 | -5.73588 | 36955 ft | 425 kts | 220° |
| 2026-05-07 11:59 | 35.13843 | -5.77888 | 36958 ft | 424 kts | 220° |
| 2026-05-07 11:59 | 35.09088 | -5.82186 | 36953 ft | 425 kts | 219° |
| 2026-05-07 12:00 | 35.04320 | -5.86478 | 36959 ft | 426 kts | 219° |
| 2026-05-07 12:00 | 34.99552 | -5.90758 | 36965 ft | 426 kts | 219° |
| 2026-05-07 12:01 | 34.94809 | -5.95010 | 36973 ft | 426 kts | 219° |
| 2026-05-07 12:01 | 34.90045 | -5.99289 | 36976 ft | 426 kts | 219° |
| 2026-05-07 12:02 | 34.85276 | -6.03577 | 36982 ft | 427 kts | 219° |
| 2026-05-07 12:02 | 34.80497 | -6.07857 | 36969 ft | 428 kts | 219° |
| 2026-05-07 12:03 | 34.75709 | -6.12134 | 36981 ft | 426 kts | 219° |
| 2026-05-07 12:03 | 34.70924 | -6.16403 | 36971 ft | 428 kts | 219° |
| 2026-05-07 12:04 | 34.66121 | -6.20685 | 36982 ft | 429 kts | 219° |
| 2026-05-07 12:04 | 34.61324 | -6.24968 | 36989 ft | 428 kts | 219° |
| 2026-05-07 12:05 | 34.56518 | -6.29247 | 36997 ft | 428 kts | 219° |
| 2026-05-07 12:05 | 34.51710 | -6.33506 | 37001 ft | 428 kts | 219° |
| 2026-05-07 12:06 | 34.46921 | -6.37731 | 36999 ft | 429 kts | 219° |
| 2026-05-07 12:06 | 34.42106 | -6.41979 | 36996 ft | 428 kts | 219° |
| 2026-05-07 12:07 | 34.37289 | -6.46236 | 37008 ft | 428 kts | 219° |
| 2026-05-07 12:07 | 34.32481 | -6.50480 | 37002 ft | 429 kts | 219° |
| 2026-05-07 12:08 | 34.27666 | -6.54735 | 37004 ft | 429 kts | 219° |
| 2026-05-07 12:08 | 34.22851 | -6.58971 | 37008 ft | 428 kts | 219° |
| 2026-05-07 12:09 | 34.18046 | -6.63193 | 36992 ft | 428 kts | 219° |
| 2026-05-07 12:09 | 34.13226 | -6.67421 | 36993 ft | 428 kts | 219° |
| 2026-05-07 12:10 | 34.08433 | -6.71618 | 36985 ft | 429 kts | 219° |
| 2026-05-07 12:10 | 34.03595 | -6.75842 | 36987 ft | 428 kts | 218° |
| 2026-05-07 12:11 | 33.98680 | -6.79918 | 36988 ft | 429 kts | 217° |
| 2026-05-07 12:11 | 33.93730 | -6.83916 | 36992 ft | 428 kts | 217° |
| 2026-05-07 12:12 | 33.88796 | -6.87935 | 36992 ft | 428 kts | 217° |
| 2026-05-07 12:12 | 33.83881 | -6.91968 | 36993 ft | 428 kts | 217° |
| 2026-05-07 12:13 | 33.78966 | -6.96002 | 36992 ft | 428 kts | 217° |
| 2026-05-07 12:13 | 33.74049 | -7.00022 | 36993 ft | 428 kts | 217° |
| 2026-05-07 12:14 | 33.69127 | -7.04037 | 37000 ft | 427 kts | 217° |
| 2026-05-07 12:14 | 33.64198 | -7.08052 | 37003 ft | 428 kts | 217° |
| 2026-05-07 12:15 | 33.59270 | -7.12060 | 37006 ft | 428 kts | 217° |
| 2026-05-07 12:15 | 33.54342 | -7.16059 | 37007 ft | 428 kts | 217° |
| 2026-05-07 12:16 | 33.49411 | -7.20061 | 37011 ft | 428 kts | 217° |
| 2026-05-07 12:16 | 33.44477 | -7.24058 | 37009 ft | 428 kts | 217° |
| 2026-05-07 12:17 | 33.39544 | -7.28055 | 37009 ft | 428 kts | 217° |
| 2026-05-07 12:17 | 33.34612 | -7.32048 | 37011 ft | 428 kts | 217° |
| 2026-05-07 12:18 | 33.29678 | -7.36035 | 37011 ft | 428 kts | 217° |
| 2026-05-07 12:18 | 33.24742 | -7.40012 | 37012 ft | 428 kts | 217° |
| 2026-05-07 12:19 | 33.20635 | -7.43317 | 37012 ft | 428 kts | 217° |
| 2026-05-07 12:19 | 33.14862 | -7.47878 | 37012 ft | 429 kts | 211° |
| 2026-05-07 12:20 | 33.10175 | -7.50043 | 37010 ft | 436 kts | 195° |
| 2026-05-07 12:20 | 33.04097 | -7.50559 | 37005 ft | 441 kts | 182° |
| 2026-05-07 12:21 | 32.97989 | -7.50516 | 37002 ft | 441 kts | 182° |
| 2026-05-07 12:21 | 32.91841 | -7.50480 | 36994 ft | 442 kts | 182° |
| 2026-05-07 12:22 | 32.85691 | -7.50448 | 36989 ft | 442 kts | 182° |
| 2026-05-07 12:22 | 32.79539 | -7.50414 | 36986 ft | 442 kts | 182° |
| 2026-05-07 12:23 | 32.73386 | -7.50376 | 36987 ft | 442 kts | 182° |
| 2026-05-07 12:23 | 32.67227 | -7.50337 | 36987 ft | 442 kts | 182° |
| 2026-05-07 12:24 | 32.61109 | -7.50288 | 36987 ft | 442 kts | 182° |
| 2026-05-07 12:24 | 32.54959 | -7.50239 | 36983 ft | 442 kts | 182° |
| 2026-05-07 12:25 | 32.48812 | -7.50205 | 36983 ft | 442 kts | 182° |
| 2026-05-07 12:25 | 32.45735 | -7.50186 | 36574 ft | 445 kts | 182° |
| 2026-05-07 12:25 | 32.42620 | -7.50166 | 35728 ft | 449 kts | 182° |
| 2026-05-07 12:25 | 32.39481 | -7.50144 | 34913 ft | 452 kts | 182° |
| 2026-05-07 12:26 | 32.36312 | -7.50120 | 34027 ft | 457 kts | 182° |
| 2026-05-07 12:26 | 32.33121 | -7.50097 | 33132 ft | 461 kts | 182° |
| 2026-05-07 12:26 | 32.29922 | -7.50072 | 32564 ft | 457 kts | 182° |
| 2026-05-07 12:26 | 32.26759 | -7.50045 | 31949 ft | 453 kts | 182° |
| 2026-05-07 12:27 | 32.23617 | -7.50021 | 31344 ft | 450 kts | 182° |
| 2026-05-07 12:27 | 32.20500 | -7.50000 | 30743 ft | 446 kts | 182° |
| 2026-05-07 12:27 | 32.17408 | -7.49982 | 30149 ft | 443 kts | 182° |
| 2026-05-07 12:27 | 32.14337 | -7.49973 | 29565 ft | 439 kts | 184° |
| 2026-05-07 12:28 | 32.11337 | -7.50384 | 28986 ft | 430 kts | 196° |
| 2026-05-07 12:28 | 32.08529 | -7.51485 | 28415 ft | 422 kts | 207° |
| 2026-05-07 12:28 | 32.06016 | -7.53188 | 27865 ft | 414 kts | 219° |
| 2026-05-07 12:28 | 32.03869 | -7.55395 | 27326 ft | 406 kts | 229° |
| 2026-05-07 12:29 | 32.02009 | -7.57810 | 26811 ft | 401 kts | 230° |
| 2026-05-07 12:29 | 32.00145 | -7.60234 | 26294 ft | 396 kts | 230° |
| 2026-05-07 12:29 | 31.98301 | -7.62627 | 25808 ft | 392 kts | 230° |
| 2026-05-07 12:29 | 31.96473 | -7.64992 | 25316 ft | 387 kts | 230° |
| 2026-05-07 12:30 | 31.94666 | -7.67324 | 24840 ft | 383 kts | 229° |
| 2026-05-07 12:30 | 31.92880 | -7.69630 | 24377 ft | 378 kts | 229° |
| 2026-05-07 12:30 | 31.91114 | -7.71912 | 23905 ft | 374 kts | 229° |
| 2026-05-07 12:30 | 31.89370 | -7.74167 | 23434 ft | 371 kts | 229° |
| 2026-05-07 12:31 | 31.87639 | -7.76402 | 22970 ft | 368 kts | 229° |
| 2026-05-07 12:31 | 31.85973 | -7.78660 | 22502 ft | 363 kts | 236° |
| 2026-05-07 12:31 | 31.84717 | -7.81213 | 22027 ft | 359 kts | 248° |
| 2026-05-07 12:31 | 31.83976 | -7.83999 | 21534 ft | 356 kts | 260° |
| 2026-05-07 12:32 | 31.83761 | -7.86886 | 21045 ft | 354 kts | 270° |
| 2026-05-07 12:32 | 31.83766 | -7.89738 | 20552 ft | 353 kts | 270° |
| 2026-05-07 12:32 | 31.83765 | -7.92621 | 20054 ft | 352 kts | 270° |
| 2026-05-07 12:32 | 31.83759 | -7.95496 | 19555 ft | 351 kts | 270° |
| 2026-05-07 12:33 | 31.83745 | -8.01227 | 18562 ft | 349 kts | 270° |
| 2026-05-07 12:33 | 31.83739 | -8.04078 | 18069 ft | 349 kts | 269° |
| 2026-05-07 12:33 | 31.83733 | -8.06925 | 17581 ft | 348 kts | 269° |
| 2026-05-07 12:34 | 31.83726 | -8.09763 | 17094 ft | 347 kts | 269° |
| 2026-05-07 12:34 | 31.83715 | -8.12593 | 16614 ft | 345 kts | 269° |
| 2026-05-07 12:34 | 31.83704 | -8.15408 | 16134 ft | 344 kts | 269° |
| 2026-05-07 12:34 | 31.83692 | -8.18218 | 15664 ft | 343 kts | 269° |
| 2026-05-07 12:35 | 31.83682 | -8.21019 | 15190 ft | 342 kts | 269° |
| 2026-05-07 12:35 | 31.83670 | -8.23806 | 14728 ft | 340 kts | 269° |
| 2026-05-07 12:35 | 31.83656 | -8.26583 | 14258 ft | 339 kts | 269° |
| 2026-05-07 12:35 | 31.83641 | -8.29355 | 13786 ft | 338 kts | 269° |
| 2026-05-07 12:36 | 31.83628 | -8.32111 | 13317 ft | 337 kts | 269° |
| 2026-05-07 12:36 | 31.83572 | -8.34862 | 12836 ft | 335 kts | 263° |
| 2026-05-07 12:36 | 31.82952 | -8.37485 | 12364 ft | 334 kts | 244° |
| 2026-05-07 12:36 | 31.81644 | -8.39721 | 11879 ft | 333 kts | 226° |
| 2026-05-07 12:37 | 31.79789 | -8.41324 | 11398 ft | 333 kts | 207° |
| 2026-05-07 12:37 | 31.77684 | -8.42437 | 10909 ft | 331 kts | 204° |
| 2026-05-07 12:37 | 31.75579 | -8.43525 | 10431 ft | 330 kts | 204° |
| 2026-05-07 12:37 | 31.73491 | -8.44603 | 10122 ft | 323 kts | 204° |
| 2026-05-07 12:38 | 31.71469 | -8.45640 | 9994 ft | 311 kts | 204° |
| 2026-05-07 12:38 | 31.69523 | -8.46635 | 9863 ft | 300 kts | 204° |
| 2026-05-07 12:38 | 31.67634 | -8.47599 | 9603 ft | 294 kts | 204° |
| 2026-05-07 12:38 | 31.65761 | -8.48555 | 9209 ft | 293 kts | 204° |
| 2026-05-07 12:39 | 31.63849 | -8.49315 | 8795 ft | 289 kts | 186° |
| 2026-05-07 12:39 | 31.61904 | -8.48972 | 8157 ft | 284 kts | 153° |
| 2026-05-07 12:39 | 31.60451 | -8.47460 | 7477 ft | 281 kts | 120° |
| 2026-05-07 12:39 | 31.59957 | -8.45292 | 6878 ft | 277 kts | 89° |
| 2026-05-07 12:40 | 31.60180 | -8.43038 | 6389 ft | 280 kts | 79° |
| 2026-05-07 12:40 | 31.60581 | -8.40801 | 5921 ft | 280 kts | 78° |
| 2026-05-07 12:40 | 31.60981 | -8.38605 | 5526 ft | 278 kts | 78° |
| 2026-05-07 12:40 | 31.61383 | -8.36394 | 5130 ft | 276 kts | 78° |
| 2026-05-07 12:41 | 31.61633 | -8.34159 | 4715 ft | 275 kts | 86° |
| 2026-05-07 12:41 | 31.61716 | -8.31939 | 4354 ft | 269 kts | 89° |
| 2026-05-07 12:41 | 31.61736 | -8.29831 | 4201 ft | 248 kts | 89° |
| 2026-05-07 12:41 | 31.61749 | -8.27871 | 4098 ft | 234 kts | 89° |
| 2026-05-07 12:42 | 31.61767 | -8.26004 | 3994 ft | 226 kts | 89° |
| 2026-05-07 12:42 | 31.61793 | -8.24168 | 3915 ft | 224 kts | 89° |
| 2026-05-07 12:42 | 31.61828 | -8.22337 | 3824 ft | 224 kts | 88° |
| 2026-05-07 12:42 | 31.61868 | -8.20509 | 3732 ft | 224 kts | 88° |
| 2026-05-07 12:43 | 31.61913 | -8.18687 | 3636 ft | 223 kts | 88° |
| 2026-05-07 12:43 | 31.61887 | -8.16860 | 3454 ft | 225 kts | 96° |
| 2026-05-07 12:43 | 31.61704 | -8.15039 | 3167 ft | 224 kts | 96° |
| 2026-05-07 12:43 | 31.61534 | -8.13266 | 2877 ft | 213 kts | 96° |
| 2026-05-07 12:44 | 31.61385 | -8.11576 | 2614 ft | 202 kts | 96° |
| 2026-05-07 12:44 | 31.61247 | -8.10001 | 2356 ft | 186 kts | 95° |
| 2026-05-07 12:44 | 31.61123 | -8.08578 | 2116 ft | 165 kts | 95° |
| 2026-05-07 12:44 | 31.61010 | -8.07301 | 1874 ft | 151 kts | 95° |
| 2026-05-07 12:45 | 31.60904 | -8.06103 | 1672 ft | 145 kts | 95° |
| 2026-05-07 12:45 | 31.60803 | -8.04936 | 1543 ft | 143 kts | 96° |
| 2026-05-07 12:45 | 31.60707 | -8.03873 | 1520 ft | 98 kts | 95° |
| 2026-05-07 12:45 | 31.60668 | -8.03430 | 1525 ft | 40 kts | 96° |
| 2026-05-07 12:46 | 31.60627 | -8.03238 | 1530 ft | 22 kts | 116° |
| 2026-05-07 12:46 | 31.60538 | -8.03088 | 1531 ft | 23 kts | 127° |
| 2026-05-07 12:46 | 31.60458 | -8.02939 | 1533 ft | 18 kts | 106° |
| 2026-05-07 12:46 | 31.60444 | -8.02792 | 1534 ft | 19 kts | 95° |
| 2026-05-07 12:47 | 31.60430 | -8.02641 | 1536 ft | 19 kts | 97° |
| 2026-05-07 12:47 | 31.60414 | -8.02476 | 1538 ft | 20 kts | 95° |
| 2026-05-07 12:47 | 31.60402 | -8.02315 | 1536 ft | 17 kts | 96° |
| 2026-05-07 12:47 | 31.60368 | -8.02193 | 1541 ft | 15 kts | 157° |
| 2026-05-07 12:48 | 31.60263 | -8.02201 | 1541 ft | 16 kts | 186° |
| 2026-05-07 12:48 | 31.60182 | -8.02234 | 1541 ft | 7 kts | 267° |
| 2026-05-07 12:48 | 31.60184 | -8.02291 | 1540 ft | 6 kts | 274° |
| 2026-05-07 12:48 | 31.60185 | -8.02301 | 1540 ft | 0 kts | 274° |